This is the latest recevied weather packets stored in our database for station/object EA5JPW-10. If no packets are shown the sender has not sent any weather packets the latest 10 day(s).
| Time | Temp. | Humidity | Pressure | Rain* | Wind** | Luminosity | Snow |
|---|---|---|---|---|---|---|---|
| 1777663151 | 19.44° C | 46% | 1000.2 hPa | - | - | - | - |
| 1777662251 | 20° C | 46% | 1000 hPa | - | - | - | - |
| 1777661351 | 20° C | 45% | 999.9 hPa | - | - | - | - |
| 1777660450 | 20.56° C | 45% | 999.5 hPa | - | - | - | - |
| 1777659550 | 20.56° C | 45% | 999.4 hPa | - | - | - | - |
| 1777658650 | 21.11° C | 45% | 999.4 hPa | - | - | - | - |
| 1777657750 | 21.11° C | 45% | 999.2 hPa | - | - | - | - |
| 1777656850 | 21.67° C | 45% | 999.1 hPa | - | - | - | - |
| 1777655949 | 180.56° C | 100% | - | - | - | - | - |
| 1777655049 | 22.22° C | 45% | 998.8 hPa | - | - | - | - |
| 1777654149 | 22.78° C | 44% | 998.7 hPa | - | - | - | - |
| 1777653249 | 23.33° C | 44% | 998.5 hPa | - | - | - | - |
| 1777652348 | 22.78° C | 44% | 998.6 hPa | - | - | - | - |
| 1777651452 | 23.33° C | 44% | 999 hPa | - | - | - | - |
| 1777650548 | 23.33° C | 44% | 998 hPa | - | - | - | - |
| 1777649648 | 23.89° C | 44% | 998.2 hPa | - | - | - | - |
| 1777648748 | 25° C | 44% | 997.8 hPa | - | - | - | - |
| 1777647848 | 28.33° C | 41% | 998 hPa | - | - | - | - |
| 1777646947 | 27.22° C | 42% | 998.3 hPa | - | - | - | - |
| 1777646047 | 26.67° C | 43% | 998.4 hPa | - | - | - | - |
| 1777645146 | 27.22° C | 43% | 998.5 hPa | - | - | - | - |
| 1777644245 | 27.78° C | 43% | 998.1 hPa | - | - | - | - |
| 1777643350 | 31.11° C | 42% | 997.7 hPa | - | - | - | - |
| 1777642449 | 39.44° C | 34% | 997 hPa | - | - | - | - |
| 1777641549 | 41.67° C | 32% | 1000.6 hPa | - | - | - | - |
* Rain since midnight (hover to see other rain measurements)
** Current wind speed in m/s (hover to see current wind gust speed)